Terminal Aerodrome Forecast
Issued by NWS

Home | Current Version | Previous Version | Text Only | Print | Product List | Glossary Off
Versions: 1 2 3 4 5 6 7 8 9 10 11 12 13 14 15 16 17 18 19 20 21

000
FTUS41 KCLE 132300
TAFFDY
TAF
KFDY 132330Z 1400/1424 20014G24KT P6SM BKN070 WS010/21040KT
     FM140800 20016G28KT 6SM -SHRA BKN050 OVC100 WS017/21045KT
     FM141300 22018G32KT 5SM -SHRA BR VCTS OVC040CB
     FM141500 19022G35KT 3SM SHRA BR VCTS OVC025CB
     FM141900 22020G28KT 4SM -SHRA BR BKN012 OVC025
     FM142200 31014KT 5SM -SHRA BR OVC012=

USA.gov is the U.S. government's official web portal to all federal, state and local government web resources and services.